Rona II — MPKR2 — position and weather

sailwx.info

Track history (hours):
 
Tides and Currents Weather Stations Pressure Air Temp Water Temp Dewpoint Dewpoint Depression Visibility Wind Speed Wind Dir Waves Ship Positions

Rona II

Last reported at 2017-Jun-23 00:30 UTC. Time now 2017-Jul-25 20:47 UTC.
Position N 42°40' W 070°10'.
Warning: this ship's position is 32 days out of date.

Length 22 m.

Type: Sailing vessel. MMSI: 232714000.

Date/timePositionNaut miles runAvg speedWind from/ knotsBaromVisibWave heightAir tempDewpointWater temp
2017-Jun-23 00:30N 42°40' W 070°10'3 6.9
2017-Jun-23 00:00N 42°40' W 070°15'4 8.1
2017-Jun-22 23:30N 42°39' W 070°21'4 7.7
2017-Jun-22 23:00N 42°38' W 070°26'4 7.5
2017-Jun-22 22:30N 42°37' W 070°30'0 0.8
2017-Jun-22 22:00N 42°38' W 070°30'1 1.7
2017-Jun-22 21:30N 42°38' W 070°29'2 3.9
2017-Jun-22 21:00N 42°36' W 070°29'2 3.2
2017-Jun-22 20:30N 42°36' W 070°27'3 6.2
2017-Jun-22 20:01N 42°33' W 070°29'3 5.9
2017-Jun-22 19:30N 42°31' W 070°31'2 3.8
2017-Jun-22 19:00N 42°29' W 070°33'1 1.9
2017-Jun-22 18:30N 42°29' W 070°34'3 5.8
2017-Jun-22 18:00N 42°27' W 070°37'2 4.2
2017-Jun-22 17:30N 42°27' W 070°40'2 4.5
2017-Jun-22 17:00N 42°27' W 070°43'7 6.5
2017-Jun-22 15:52N 42°23' W 070°52'2 6.4
2017-Jun-22 15:29N 42°22' W 070°55'3 6.6
2017-Jun-22 15:00N 42°20' W 070°58'3 0.2
2017-Jun-21 23:14N 42°21' W 071°03'0 0.0
2017-Jun-21 22:59N 42°21' W 071°03'0 0.0
2017-Jun-21 20:20N 42°21' W 071°03'0 0.0
2017-Jun-21 19:41N 42°21' W 071°03'  
2017-Jun-17 18:50N 42°21' W 071°03'0 0.2
2017-Jun-17 18:23N 42°21' W 071°03'0 1.0
2017-Jun-17 18:00N 42°22' W 071°03'3 4.6
2017-Jun-17 17:27N 42°20' W 070°60'3 5.8
2017-Jun-17 17:00N 42°21' W 070°56'3 5.4
2017-Jun-17 16:28N 42°22' W 070°54'1 0.2
2017-Jun-17 10:22N 42°24' W 070°54'3 5.8
2017-Jun-17 09:54N 42°26' W 070°52'2 6.2
2017-Jun-17 09:30N 42°28' W 070°50'3 5.9
2017-Jun-17 09:00N 42°31' W 070°50'  
2017-Jun-13 14:32N 42°32' W 070°52'3 5.8
2017-Jun-13 14:00N 42°33' W 070°48'3 5.7
2017-Jun-13 13:30N 42°33' W 070°44'3 5.1
2017-Jun-13 13:00N 42°34' W 070°40'3 6.6
2017-Jun-13 12:30N 42°34' W 070°36'4 7.0
2017-Jun-13 12:00N 42°34' W 070°31'3 6.2
2017-Jun-13 11:30N 42°34' W 070°27'3 5.2
2017-Jun-13 11:00N 42°35' W 070°23'4 7.3
2017-Jun-13 10:30N 42°38' W 070°21'3 7.0
2017-Jun-13 10:00N 42°41' W 070°19'  
Track history (hours):
 
Tides and Currents Weather Stations Pressure Air Temp Water Temp Dewpoint Dewpoint Depression Visibility Wind Speed Wind Dir Waves Ship Positions

Rona II

Last reported at 2017-Jun-23 00:30 UTC. Time now 2017-Jul-25 20:47 UTC.
Position N 42°40' W 070°10'.
Warning: this ship's position is 32 days out of date.

Length 22 m.

Type: Sailing vessel. MMSI: 232714000.

Date/timePositionNaut miles runAvg speedWind from/ knotsBaromVisibWave heightAir tempDewpointWater temp
2017-Jun-23 00:30N 42°40' W 070°10'3 6.9
2017-Jun-23 00:00N 42°40' W 070°15'4 8.1
2017-Jun-22 23:30N 42°39' W 070°21'4 7.7
2017-Jun-22 23:00N 42°38' W 070°26'4 7.5
2017-Jun-22 22:30N 42°37' W 070°30'0 0.8
2017-Jun-22 22:00N 42°38' W 070°30'1 1.7
2017-Jun-22 21:30N 42°38' W 070°29'2 3.9
2017-Jun-22 21:00N 42°36' W 070°29'2 3.2
2017-Jun-22 20:30N 42°36' W 070°27'3 6.2
2017-Jun-22 20:01N 42°33' W 070°29'3 5.9
2017-Jun-22 19:30N 42°31' W 070°31'2 3.8
2017-Jun-22 19:00N 42°29' W 070°33'1 1.9
2017-Jun-22 18:30N 42°29' W 070°34'3 5.8
2017-Jun-22 18:00N 42°27' W 070°37'2 4.2
2017-Jun-22 17:30N 42°27' W 070°40'2 4.5
2017-Jun-22 17:00N 42°27' W 070°43'7 6.5
2017-Jun-22 15:52N 42°23' W 070°52'2 6.4
2017-Jun-22 15:29N 42°22' W 070°55'3 6.6
2017-Jun-22 15:00N 42°20' W 070°58'3 0.2
2017-Jun-21 23:14N 42°21' W 071°03'0 0.0
2017-Jun-21 22:59N 42°21' W 071°03'0 0.0
2017-Jun-21 20:20N 42°21' W 071°03'0 0.0
2017-Jun-21 19:41N 42°21' W 071°03'  
2017-Jun-17 18:50N 42°21' W 071°03'0 0.2
2017-Jun-17 18:23N 42°21' W 071°03'0 1.0
2017-Jun-17 18:00N 42°22' W 071°03'3 4.6
2017-Jun-17 17:27N 42°20' W 070°60'3 5.8
2017-Jun-17 17:00N 42°21' W 070°56'3 5.4
2017-Jun-17 16:28N 42°22' W 070°54'1 0.2
2017-Jun-17 10:22N 42°24' W 070°54'3 5.8
2017-Jun-17 09:54N 42°26' W 070°52'2 6.2
2017-Jun-17 09:30N 42°28' W 070°50'3 5.9
2017-Jun-17 09:00N 42°31' W 070°50'  
2017-Jun-13 14:32N 42°32' W 070°52'3 5.8
2017-Jun-13 14:00N 42°33' W 070°48'3 5.7
2017-Jun-13 13:30N 42°33' W 070°44'3 5.1
2017-Jun-13 13:00N 42°34' W 070°40'3 6.6
2017-Jun-13 12:30N 42°34' W 070°36'4 7.0
2017-Jun-13 12:00N 42°34' W 070°31'3 6.2
2017-Jun-13 11:30N 42°34' W 070°27'3 5.2
2017-Jun-13 11:00N 42°35' W 070°23'4 7.3
2017-Jun-13 10:30N 42°38' W 070°21'3 7.0
2017-Jun-13 10:00N 42°41' W 070°19'  

Dump ship's entire track history